Time;durP1;ratioP1;P1;durP2;ratioP2;P2;SDS_P1;SDS_P2;PMS_P1;PMS_P2;Temp;Humidity;BMP_temperature;BMP_pressure;BME280_temperature;BME280_humidity;BME280_pressure;Samples;Min_cycle;Max_cycle;Signal;HPM_P1;HPM_P2
2022/11/23 00:00:18;;;;;;;4.15;1.00;;;7.50;87.10;;;;;;5036975;28;20053;-70
2022/11/23 00:02:45;;;;;;;3.33;0.95;;;7.60;87.10;;;;;;5037606;28;20535;-70
2022/11/23 00:05:14;;;;;;;5.35;1.08;;;7.50;87.10;;;;;;5042873;28;20041;-71
2022/11/23 00:07:43;;;;;;;4.97;1.25;;;7.60;87.10;;;;;;5037954;28;20053;-61
2022/11/23 00:10:10;;;;;;;5.38;1.10;;;7.60;87.00;;;;;;5040377;28;20957;-62
2022/11/23 00:12:40;;;;;;;7.05;1.45;;;7.60;87.00;;;;;;5043189;28;20049;-62
2022/11/23 00:15:08;;;;;;;6.68;1.20;;;7.60;87.00;;;;;;5054384;28;20144;-60
2022/11/23 00:17:35;;;;;;;4.57;1.20;;;7.60;87.00;;;;;;5052820;28;20045;-62
2022/11/23 00:20:02;;;;;;;2.05;1.00;;;7.60;87.00;;;;;;5054368;28;20067;-62
2022/11/23 00:22:31;;;;;;;5.47;1.33;;;7.60;87.00;;;;;;5054071;28;20072;-62
2022/11/23 00:24:58;;;;;;;5.63;1.30;;;7.70;86.90;;;;;;5054384;28;20043;-62
2022/11/23 00:27:25;;;;;;;3.83;1.15;;;7.60;87.00;;;;;;5054731;28;20059;-61
2022/11/23 00:29:52;;;;;;;3.80;1.10;;;7.70;86.90;;;;;;5026433;28;20124;-59
2022/11/23 00:32:23;;;;;;;3.92;1.02;;;7.60;87.00;;;;;;5043658;28;20487;-59
2022/11/23 00:34:50;;;;;;;2.95;0.90;;;7.70;86.90;;;;;;5039654;28;20053;-60
2022/11/23 00:37:17;;;;;;;5.18;1.10;;;7.70;86.90;;;;;;5023747;28;20052;-61
2022/11/23 00:39:46;;;;;;;3.60;1.02;;;7.70;86.90;;;;;;5044279;28;20045;-61
2022/11/23 00:42:13;;;;;;;4.68;0.90;;;7.70;86.90;;;;;;5041616;28;20518;-61
2022/11/23 00:44:40;;;;;;;3.95;1.02;;;7.70;86.80;;;;;;5043399;28;20120;-60
2022/11/23 00:47:10;;;;;;;5.05;1.33;;;7.70;86.80;;;;;;5049139;28;20091;-61
2022/11/23 00:49:39;;;;;;;3.35;1.27;;;7.70;86.80;;;;;;5055997;28;20053;-62
2022/11/23 00:52:06;;;;;;;5.13;1.20;;;7.70;86.80;;;;;;5054809;28;20053;-61
2022/11/23 00:54:33;;;;;;;4.47;1.17;;;7.70;86.80;;;;;;5055565;28;20543;-61
2022/11/23 00:57:02;;;;;;;5.00;1.50;;;7.70;86.70;;;;;;5049821;28;20058;-61
2022/11/23 00:59:29;;;;;;;3.05;1.00;;;7.70;86.80;;;;;;5051271;28;20044;-61
2022/11/23 01:01:56;;;;;;;3.65;0.90;;;7.70;86.70;;;;;;5033853;28;20060;-60
2022/11/23 01:04:23;;;;;;;2.90;0.95;;;7.70;86.70;;;;;;5038416;28;20044;-60
2022/11/23 01:06:50;;;;;;;2.58;0.95;;;7.70;86.60;;;;;;5031418;28;20199;-60
2022/11/23 01:09:23;;;;;;;5.95;0.95;;;7.70;86.60;;;;;;5050367;28;20053;-58
2022/11/23 01:11:51;;;;;;;3.13;0.60;;;7.70;86.70;;;;;;5049005;28;20106;-61
2022/11/23 01:14:19;;;;;;;5.22;0.80;;;7.70;86.70;;;;;;5051602;28;20045;-59
2022/11/23 01:16:52;;;;;;;3.58;1.08;;;7.70;86.80;;;;;;5052336;28;20041;-59
2022/11/23 01:19:20;;;;;;;2.45;0.80;;;7.70;86.80;;;;;;5052732;28;20041;-59
2022/11/23 01:21:50;;;;;;;3.33;1.10;;;7.70;86.90;;;;;;5051619;28;20448;-60
2022/11/23 01:24:19;;;;;;;2.42;0.70;;;7.70;86.90;;;;;;5050249;28;20045;-61
2022/11/23 01:26:50;;;;;;;3.03;0.90;;;7.70;87.10;;;;;;5046404;28;20045;-59
2022/11/23 01:29:17;;;;;;;8.15;1.10;;;7.70;87.10;;;;;;5040024;28;20053;-61
2022/11/23 01:31:45;;;;;;;6.63;1.23;;;7.70;87.10;;;;;;5038371;28;20120;-61
2022/11/23 01:34:17;;;;;;;4.00;0.70;;;7.70;87.10;;;;;;5048201;28;20049;-61
2022/11/23 01:36:45;;;;;;;5.15;1.00;;;7.70;87.20;;;;;;5049424;28;20687;-59
2022/11/23 01:39:12;;;;;;;2.25;0.63;;;7.70;87.20;;;;;;5031481;28;20045;-60
2022/11/23 01:41:43;;;;;;;3.55;0.77;;;7.70;87.20;;;;;;5032792;28;20461;-60
2022/11/23 01:44:23;;;;;;;;;;;7.60;87.20;;;;;;5032581;28;20045;-61
2022/11/23 01:46:56;;;;;;;3.42;0.80;;;7.60;87.20;;;;;;5049931;28;19928;-61
2022/11/23 01:49:25;;;;;;;4.15;1.10;;;7.60;87.20;;;;;;5044452;28;20044;-61
2022/11/23 01:51:55;;;;;;;4.82;1.10;;;7.60;87.20;;;;;;5049014;28;20045;-62
2022/11/23 01:54:28;;;;;;;5.40;1.00;;;7.60;87.20;;;;;;5047264;28;20060;-63
2022/11/23 01:56:59;;;;;;;5.38;0.68;;;7.60;87.30;;;;;;5031209;28;20049;-62
2022/11/23 01:59:28;;;;;;;2.60;0.90;;;7.60;87.20;;;;;;5031324;28;20083;-62
2022/11/23 02:01:56;;;;;;;4.63;0.93;;;7.60;87.30;;;;;;5047794;28;20051;-71
2022/11/23 02:04:29;;;;;;;4.15;0.90;;;7.60;87.30;;;;;;5049358;28;20064;-72
2022/11/23 02:06:59;;;;;;;4.03;0.95;;;7.60;87.40;;;;;;5048083;28;20065;-63
2022/11/23 02:09:30;;;;;;;2.83;1.00;;;7.60;87.40;;;;;;5049018;28;20055;-63
2022/11/23 02:11:57;;;;;;;;;;;7.60;87.40;;;;;;5048454;28;20040;-65
2022/11/23 02:14:25;;;;;;;3.83;0.90;;;7.60;87.50;;;;;;5044998;28;20027;-65
2022/11/23 02:16:57;;;;;;;2.78;0.90;;;7.60;87.50;;;;;;5026934;28;20099;-61
2022/11/23 02:19:32;;;;;;;3.38;0.68;;;7.60;87.40;;;;;;5025888;28;20052;-61
2022/11/23 02:22:01;;;;;;;4.35;0.95;;;7.60;87.40;;;;;;5046304;28;20400;-60
2022/11/23 02:24:34;;;;;;;2.22;0.73;;;7.60;87.40;;;;;;5030229;28;20127;-59
2022/11/23 02:27:05;;;;;;;2.30;0.75;;;7.60;87.40;;;;;;5049272;28;20064;-60
2022/11/23 02:29:34;;;;;;;5.57;1.27;;;7.60;87.40;;;;;;5043833;28;20131;-61
2022/11/23 02:32:01;;;;;;;4.80;1.00;;;7.60;87.40;;;;;;5028249;28;20052;-66
2022/11/23 02:34:28;;;;;;;4.63;1.10;;;7.60;87.40;;;;;;5047826;28;20040;-64
2022/11/23 02:36:57;;;;;;;3.78;0.80;;;7.60;87.40;;;;;;5046681;28;20086;-66
2022/11/23 02:39:30;;;;;;;3.33;0.80;;;7.60;87.40;;;;;;5048822;28;20037;-65
2022/11/23 02:41:58;;;;;;;5.95;0.98;;;7.60;87.40;;;;;;5049020;28;20079;-66
2022/11/23 02:44:36;;;;;;;3.30;0.77;;;7.60;87.40;;;;;;5031433;28;20072;-66
2022/11/23 02:47:04;;;;;;;6.43;1.00;;;7.60;87.40;;;;;;5042600;28;20112;-61
2022/11/23 02:49:32;;;;;;;3.70;0.80;;;7.60;87.40;;;;;;5042591;28;20059;-60
2022/11/23 02:51:59;;;;;;;3.65;0.65;;;7.60;87.40;;;;;;5043508;28;20063;-59
2022/11/23 02:54:26;;;;;;;7.47;1.27;;;7.60;87.40;;;;;;5050272;28;20041;-60
2022/11/23 02:56:53;;;;;;;3.40;0.73;;;7.60;87.40;;;;;;5027530;28;20041;-61
2022/11/23 02:59:20;;;;;;;4.80;0.82;;;7.60;87.40;;;;;;5025342;28;20041;-60
2022/11/23 03:01:53;;;;;;;6.85;1.13;;;7.70;87.40;;;;;;5047405;28;20049;-65
2022/11/23 03:04:20;;;;;;;3.08;0.73;;;7.70;87.40;;;;;;5031287;28;20699;-64
2022/11/23 03:06:47;;;;;;;5.30;0.82;;;7.60;87.40;;;;;;5037456;28;20053;-66
2022/11/23 03:09:14;;;;;;;2.28;0.80;;;7.70;87.40;;;;;;5039373;28;20044;-66
2022/11/23 03:11:42;;;;;;;3.13;0.82;;;7.70;87.40;;;;;;5038591;28;20696;-66
2022/11/23 03:14:09;;;;;;;2.85;0.70;;;7.70;87.40;;;;;;5044158;28;20111;-65
2022/11/23 03:16:44;;;;;;;3.63;0.93;;;7.70;87.40;;;;;;5023278;28;20055;-65
2022/11/23 03:19:13;;;;;;;3.17;0.55;;;7.70;87.40;;;;;;5045986;28;20044;-66
2022/11/23 03:21:42;;;;;;;2.50;0.75;;;7.70;87.40;;;;;;5022817;28;20123;-67
2022/11/23 03:24:08;;;;;;;3.20;0.70;;;7.70;87.40;;;;;;5027405;28;20128;-65
2022/11/23 03:26:36;;;;;;;2.75;0.73;;;7.70;87.50;;;;;;5023729;28;20083;-66
2022/11/23 03:29:13;;;;;;;4.13;0.75;;;7.70;87.60;;;;;;5027871;28;20045;-65
2022/11/23 03:31:42;;;;;;;3.78;0.80;;;7.70;87.60;;;;;;5024750;28;20045;-69
2022/11/23 03:34:14;;;;;;;4.40;0.73;;;7.70;87.60;;;;;;5027197;28;20041;-69
2022/11/23 03:36:41;;;;;;;6.18;1.10;;;7.70;87.60;;;;;;5040141;28;20079;-69
2022/11/23 03:39:08;;;;;;;3.20;0.63;;;7.70;87.60;;;;;;5027620;28;20094;-70
2022/11/23 03:41:58;;;;;;;7.72;0.85;;;7.70;87.80;;;;;;5018968;28;20060;-68
2022/11/23 03:44:31;;;;;;;4.00;0.90;;;7.70;87.70;;;;;;5031595;28;20065;-69
2022/11/23 03:46:59;;;;;;;3.00;1.20;;;7.70;87.70;;;;;;5046141;28;20135;-70
2022/11/23 03:49:28;;;;;;;4.07;0.60;;;7.70;87.60;;;;;;5024758;28;20045;-68
2022/11/23 03:51:55;;;;;;;2.42;0.90;;;7.70;87.60;;;;;;5025326;28;20179;-68
2022/11/23 03:54:22;;;;;;;2.60;0.70;;;7.70;87.60;;;;;;5040224;28;20479;-69
2022/11/23 03:56:51;;;;;;;4.20;0.90;;;7.70;87.60;;;;;;5046811;28;20053;-69
2022/11/23 03:59:18;;;;;;;4.88;0.77;;;7.70;87.70;;;;;;5030214;28;20041;-69
2022/11/23 04:01:45;;;;;;;3.72;0.90;;;7.70;87.60;;;;;;5046638;28;20041;-65
2022/11/23 04:04:20;;;;;;;4.38;1.00;;;7.70;87.60;;;;;;5048090;28;20055;-65
2022/11/23 04:07:03;;;;;;;3.65;0.80;;;7.70;87.60;;;;;;5026005;28;20168;-64
2022/11/23 04:09:33;;;;;;;4.82;0.73;;;7.70;87.70;;;;;;5026141;28;20081;-65
2022/11/23 04:12:17;;;;;;;3.63;1.10;;;7.70;87.70;;;;;;5026620;28;20133;-61
2022/11/23 04:14:44;;;;;;;7.43;0.98;;;7.70;87.70;;;;;;5024796;28;20123;-61
2022/11/23 04:17:11;;;;;;;4.13;0.80;;;7.70;87.70;;;;;;5025563;28;20063;-62
2022/11/23 04:19:38;;;;;;;3.13;0.90;;;7.70;87.80;;;;;;5027747;28;20140;-62
2022/11/23 04:22:10;;;;;;;5.07;1.00;;;7.70;87.90;;;;;;5023236;28;20100;-65
2022/11/23 04:24:41;;;;;;;3.85;0.90;;;7.70;88.00;;;;;;5039787;28;20047;-65
2022/11/23 04:27:09;;;;;;;4.50;1.20;;;7.70;88.00;;;;;;5024713;28;20555;-60
2022/11/23 04:29:37;;;;;;;3.10;0.73;;;7.70;87.90;;;;;;5038265;28;20562;-60
2022/11/23 04:32:04;;;;;;;4.75;1.02;;;7.70;87.80;;;;;;5023907;28;20038;-62
2022/11/23 04:34:31;;;;;;;7.40;0.98;;;7.70;88.00;;;;;;5042070;28;20057;-62
2022/11/23 04:37:01;;;;;;;3.67;1.00;;;7.70;87.90;;;;;;5028554;28;20073;-63
2022/11/23 04:39:39;;;;;;;5.60;0.93;;;7.70;87.90;;;;;;5028625;28;20053;-62
2022/11/23 04:42:17;;;;;;;6.68;0.80;;;7.70;87.90;;;;;;5030387;28;20131;-62
2022/11/23 04:44:49;;;;;;;7.22;1.05;;;7.70;87.90;;;;;;5030826;28;20045;-62
2022/11/23 04:47:17;;;;;;;4.40;1.33;;;7.70;87.80;;;;;;5030676;28;20049;-71
2022/11/23 04:49:46;;;;;;;5.35;0.98;;;7.70;87.90;;;;;;5030069;28;20057;-69
2022/11/23 04:52:14;;;;;;;3.63;0.80;;;7.70;87.90;;;;;;5027245;28;20072;-62
2022/11/23 04:54:47;;;;;;;5.45;1.35;;;7.70;87.90;;;;;;5029567;28;20049;-62
2022/11/23 04:57:14;;;;;;;5.95;1.00;;;7.70;87.90;;;;;;5028310;28;20045;-61
2022/11/23 04:59:43;;;;;;;4.30;0.82;;;7.70;87.90;;;;;;5044916;28;20660;-65
2022/11/23 05:02:10;;;;;;;3.90;0.85;;;7.70;88.00;;;;;;5025518;28;20069;-61
2022/11/23 05:05:00;;;;;;;3.92;0.98;;;7.70;87.90;;;;;;5022380;28;20053;-62
2022/11/23 05:07:30;;;;;;;3.93;1.17;;;7.70;87.90;;;;;;5042341;28;20079;-63
2022/11/23 05:10:03;;;;;;;3.00;0.90;;;7.70;87.90;;;;;;5027711;28;20496;-61
2022/11/23 05:12:32;;;;;;;3.08;0.80;;;7.70;87.90;;;;;;5047086;28;20140;-60
2022/11/23 05:14:59;;;;;;;4.43;1.10;;;7.70;87.90;;;;;;5030514;28;20052;-61
2022/11/23 05:17:34;;;;;;;4.07;0.95;;;7.70;87.90;;;;;;5031255;28;20080;-62
2022/11/23 05:20:01;;;;;;;4.93;0.90;;;7.70;87.90;;;;;;5029755;28;20126;-61
2022/11/23 05:22:32;;;;;;;6.88;1.10;;;7.70;87.90;;;;;;5026500;28;20414;-59
2022/11/23 05:24:59;;;;;;;5.82;1.20;;;7.70;87.90;;;;;;5031562;28;20049;-62
2022/11/23 05:27:29;;;;;;;3.38;1.02;;;7.70;88.00;;;;;;5050307;28;20055;-61
2022/11/23 05:29:56;;;;;;;3.65;0.93;;;7.70;88.00;;;;;;5031625;28;20056;-61
2022/11/23 05:32:23;;;;;;;5.78;1.15;;;7.70;88.10;;;;;;5045352;28;20033;-63
2022/11/23 05:34:50;;;;;;;4.55;1.00;;;7.70;88.10;;;;;;5033216;28;20511;-63
2022/11/23 05:37:19;;;;;;;3.55;0.85;;;7.70;88.00;;;;;;5031264;28;20037;-62
2022/11/23 05:39:54;;;;;;;2.50;1.00;;;7.70;88.10;;;;;;5031338;28;20480;-61
2022/11/23 05:42:22;;;;;;;5.13;0.85;;;7.70;88.10;;;;;;5048163;28;20056;-63
2022/11/23 05:44:52;;;;;;;6.32;1.02;;;7.70;88.20;;;;;;5033193;28;20118;-63
2022/11/23 05:47:25;;;;;;;5.30;1.00;;;7.80;88.30;;;;;;5032763;28;20091;-69
2022/11/23 05:49:52;;;;;;;4.78;1.10;;;7.80;88.30;;;;;;5051958;28;20053;-70
2022/11/23 05:52:24;;;;;;;;;;;7.70;88.40;;;;;;5030208;28;20511;-61
2022/11/23 05:54:52;;;;;;;5.20;1.42;;;7.70;88.50;;;;;;5030682;28;20011;-61
2022/11/23 05:57:22;;;;;;;4.68;1.13;;;7.70;88.70;;;;;;5031818;28;20041;-59
2022/11/23 05:59:51;;;;;;;4.28;1.33;;;7.70;88.70;;;;;;5031138;28;20495;-61
2022/11/23 06:02:26;;;;;;;3.55;1.10;;;7.70;88.70;;;;;;5046000;28;20040;-60
2022/11/23 06:04:59;;;;;;;2.72;1.08;;;7.70;88.70;;;;;;5032023;28;20056;-60
2022/11/23 06:07:36;;;;;;;6.25;1.38;;;7.70;88.80;;;;;;5026421;28;20144;-60
2022/11/23 06:10:08;;;;;;;2.17;0.98;;;7.70;88.90;;;;;;5030060;28;20130;-61
2022/11/23 06:12:39;;;;;;;4.70;1.15;;;7.70;88.80;;;;;;5028091;28;20107;-60
2022/11/23 06:15:11;;;;;;;5.78;1.23;;;7.70;88.90;;;;;;5027681;28;20080;-61
2022/11/23 06:17:38;;;;;;;5.63;1.80;;;7.70;88.80;;;;;;5045965;28;20127;-61
2022/11/23 06:20:10;;;;;;;4.60;1.33;;;7.70;88.90;;;;;;5030687;28;20144;-60
2022/11/23 06:22:42;;;;;;;3.60;0.82;;;7.70;88.90;;;;;;5030011;28;20111;-60
2022/11/23 06:25:10;;;;;;;6.47;1.27;;;7.70;88.90;;;;;;5025485;28;20511;-60
2022/11/23 06:27:42;;;;;;;3.13;1.00;;;7.70;88.90;;;;;;5043706;28;20056;-60
2022/11/23 06:30:25;;;;;;;4.30;1.20;;;7.60;88.80;;;;;;5027919;28;22032;-72
2022/11/23 06:32:52;;;;;;;2.75;0.93;;;7.60;88.70;;;;;;5029256;28;20052;-71
2022/11/23 06:35:21;;;;;;;2.20;0.88;;;7.60;88.70;;;;;;5025927;28;20138;-67
2022/11/23 06:37:49;;;;;;;2.92;0.90;;;7.70;88.60;;;;;;5026642;28;20033;-65
2022/11/23 06:40:17;;;;;;;3.58;0.98;;;7.70;88.60;;;;;;5025457;28;20099;-66
2022/11/23 06:42:44;;;;;;;2.67;0.80;;;7.60;88.60;;;;;;5025938;28;20050;-64
2022/11/23 06:45:17;;;;;;;3.40;0.68;;;7.60;88.60;;;;;;5027742;28;20037;-65
2022/11/23 06:47:47;;;;;;;2.67;0.80;;;7.60;88.50;;;;;;5027582;28;20045;-66
2022/11/23 06:50:16;;;;;;;3.60;1.13;;;7.60;88.50;;;;;;5028255;28;20049;-66
2022/11/23 06:52:46;;;;;;;3.50;1.05;;;7.60;88.50;;;;;;5025354;28;20055;-66
2022/11/23 06:55:14;;;;;;;4.15;1.27;;;7.60;88.50;;;;;;5025066;28;20683;-64
2022/11/23 06:57:41;;;;;;;2.90;1.02;;;7.60;88.40;;;;;;5022621;28;20140;-60
2022/11/23 07:00:12;;;;;;;2.50;0.83;;;7.60;88.40;;;;;;5026579;28;20167;-60
2022/11/23 07:02:39;;;;;;;3.53;1.00;;;7.60;88.30;;;;;;5022746;28;20464;-59
2022/11/23 07:05:08;;;;;;;2.83;0.82;;;7.60;88.40;;;;;;5025342;28;20049;-59
2022/11/23 07:07:38;;;;;;;5.90;1.10;;;7.60;88.40;;;;;;5021624;28;20144;-60
2022/11/23 07:10:13;;;;;;;3.45;1.02;;;7.50;88.40;;;;;;5022741;28;20131;-59
2022/11/23 07:12:48;;;;;;;2.10;0.82;;;7.60;88.50;;;;;;5023191;28;20570;-60
2022/11/23 07:15:19;;;;;;;3.42;1.00;;;7.60;88.50;;;;;;5043323;28;20495;-69
2022/11/23 07:17:46;;;;;;;3.20;1.15;;;7.60;88.50;;;;;;5028802;28;20052;-69
2022/11/23 07:20:18;;;;;;;6.65;1.35;;;7.60;88.50;;;;;;5023989;28;20041;-66
2022/11/23 07:22:45;;;;;;;3.67;1.13;;;7.60;88.40;;;;;;5024112;28;20049;-62
2022/11/23 07:25:15;;;;;;;3.83;1.02;;;7.60;88.50;;;;;;5026964;28;20115;-61
2022/11/23 07:27:42;;;;;;;6.70;1.13;;;7.60;88.50;;;;;;5024000;28;20111;-61
2022/11/23 07:30:10;;;;;;;4.13;1.20;;;7.60;88.50;;;;;;5024606;28;20521;-59
2022/11/23 07:32:37;;;;;;;3.80;0.95;;;7.60;88.40;;;;;;5024669;28;20041;-61
2022/11/23 07:35:04;;;;;;;3.17;1.00;;;7.70;88.30;;;;;;5026805;28;20100;-62
2022/11/23 07:37:37;;;;;;;2.38;1.10;;;7.70;88.30;;;;;;5044206;28;20132;-60
2022/11/23 07:40:06;;;;;;;3.60;1.08;;;7.70;88.30;;;;;;5026067;28;20498;-61
2022/11/23 07:42:34;;;;;;;4.10;1.13;;;7.70;88.30;;;;;;5027262;28;20060;-61
2022/11/23 07:45:01;;;;;;;3.70;1.30;;;7.70;88.30;;;;;;5025815;28;20107;-61
2022/11/23 07:47:29;;;;;;;4.03;0.82;;;7.70;88.40;;;;;;5023705;28;20404;-61
2022/11/23 07:49:56;;;;;;;5.60;1.48;;;7.70;88.40;;;;;;5028070;28;20117;-62
2022/11/23 07:52:23;;;;;;;3.20;1.08;;;7.70;88.40;;;;;;5025502;28;20041;-65
2022/11/23 07:54:51;;;;;;;3.35;1.02;;;7.70;88.30;;;;;;5028710;28;20131;-65
2022/11/23 07:57:18;;;;;;;3.25;0.90;;;7.80;88.30;;;;;;5025169;28;20136;-60
2022/11/23 07:59:45;;;;;;;6.30;1.10;;;7.80;88.30;;;;;;5026785;28;20069;-60
2022/11/23 08:02:14;;;;;;;3.45;1.08;;;7.80;88.30;;;;;;5025018;28;20078;-63
2022/11/23 08:04:41;;;;;;;3.35;1.00;;;7.90;88.20;;;;;;5025995;28;20049;-62
2022/11/23 08:07:08;;;;;;;4.15;1.45;;;7.90;88.20;;;;;;5039210;28;20045;-70
2022/11/23 08:09:37;;;;;;;4.45;1.40;;;7.90;88.20;;;;;;5051461;28;20048;-72
2022/11/23 08:12:06;;;;;;;3.42;1.08;;;7.90;88.30;;;;;;5051812;28;20511;-71
2022/11/23 08:14:33;;;;;;;5.03;1.40;;;8.00;88.20;;;;;;5043229;28;20045;-70
2022/11/23 08:17:00;;;;;;;6.05;1.30;;;8.00;88.10;;;;;;5046937;28;20055;-71
2022/11/23 08:19:28;;;;;;;3.95;1.02;;;8.10;88.10;;;;;;5049767;28;20499;-72
2022/11/23 08:21:55;;;;;;;4.68;1.30;;;8.10;88.00;;;;;;5049892;28;20146;-72
2022/11/23 08:24:22;;;;;;;4.43;1.40;;;8.10;87.90;;;;;;5048815;28;20397;-71
2022/11/23 08:26:49;;;;;;;5.20;1.15;;;8.10;87.90;;;;;;5047227;28;20106;-62
2022/11/23 08:29:18;;;;;;;6.07;1.60;;;8.10;87.90;;;;;;5049962;28;20063;-62
2022/11/23 08:31:45;;;;;;;4.82;1.50;;;8.10;87.90;;;;;;5050630;28;20056;-59
2022/11/23 08:34:17;;;;;;;;;;;8.20;87.90;;;;;;5052032;28;20411;-60
2022/11/23 08:36:44;;;;;;;4.03;1.20;;;8.20;87.90;;;;;;5051829;28;20454;-61
2022/11/23 08:39:13;;;;;;;6.82;1.38;;;8.20;87.90;;;;;;5050655;28;20052;-61
2022/11/23 08:41:40;;;;;;;4.38;1.30;;;8.30;87.90;;;;;;5048899;28;20052;-68
2022/11/23 08:44:09;;;;;;;7.00;1.65;;;8.30;87.80;;;;;;5049124;28;20053;-69
2022/11/23 08:46:38;;;;;;;6.85;1.60;;;8.30;87.80;;;;;;5049888;28;20103;-63
2022/11/23 08:49:06;;;;;;;5.70;2.00;;;8.30;87.70;;;;;;5050415;28;20049;-62
2022/11/23 08:51:34;;;;;;;6.63;1.95;;;8.30;87.70;;;;;;5048797;28;20123;-71
2022/11/23 08:54:01;;;;;;;5.70;1.83;;;8.40;87.70;;;;;;5050815;28;20116;-72
2022/11/23 08:56:28;;;;;;;7.82;2.15;;;8.40;87.70;;;;;;5051958;28;20037;-63
2022/11/23 08:58:55;;;;;;;7.40;2.08;;;8.40;87.60;;;;;;5049069;28;20052;-63
2022/11/23 09:01:22;;;;;;;5.75;1.83;;;8.50;87.70;;;;;;5045682;28;20072;-61
2022/11/23 09:03:50;;;;;;;4.72;2.03;;;8.50;87.70;;;;;;5051904;28;20045;-60
2022/11/23 09:06:17;;;;;;;6.80;2.28;;;8.60;87.70;;;;;;5050704;28;20055;-60
2022/11/23 09:08:44;;;;;;;7.78;2.13;;;8.60;87.70;;;;;;5047343;28;20197;-60
2022/11/23 09:11:13;;;;;;;6.88;2.50;;;8.60;87.60;;;;;;5045550;28;20590;-61
2022/11/23 09:13:41;;;;;;;5.85;2.13;;;8.60;87.60;;;;;;5048600;28;20546;-60
2022/11/23 09:16:08;;;;;;;7.72;2.25;;;8.70;87.60;;;;;;5048522;28;20134;-69
2022/11/23 09:18:35;;;;;;;5.80;1.95;;;8.70;87.40;;;;;;5045436;28;20048;-69
2022/11/23 09:21:05;;;;;;;6.75;1.73;;;8.70;87.30;;;;;;5050404;28;20124;-63
2022/11/23 09:23:32;;;;;;;6.88;2.05;;;8.70;87.20;;;;;;5034325;28;20041;-63
2022/11/23 09:25:59;;;;;;;4.22;1.60;;;8.70;87.10;;;;;;5052385;28;20049;-69
2022/11/23 09:28:27;;;;;;;6.00;1.30;;;8.70;87.00;;;;;;5049261;28;20116;-68
2022/11/23 09:30:55;;;;;;;5.97;1.60;;;8.70;87.00;;;;;;5050288;28;20045;-59
2022/11/23 09:33:22;;;;;;;4.47;1.50;;;8.70;87.00;;;;;;5048486;28;20033;-60
2022/11/23 09:35:56;;;;;;;5.43;1.90;;;8.80;86.90;;;;;;5048165;28;20084;-61
2022/11/23 09:38:25;;;;;;;3.42;1.27;;;8.80;87.00;;;;;;5050232;28;20040;-60
2022/11/23 09:40:58;;;;;;;4.40;1.40;;;8.80;86.90;;;;;;5052230;28;20079;-64
2022/11/23 09:43:39;;;;;;;5.80;1.45;;;8.90;86.80;;;;;;5049312;28;20051;-65
2022/11/23 09:46:13;;;;;;;6.88;1.50;;;8.90;86.60;;;;;;5050914;28;20049;-65
2022/11/23 09:49:01;;;;;;;4.00;1.00;;;8.90;86.60;;;;;;5050086;28;20053;-64
2022/11/23 09:51:30;;;;;;;4.03;1.17;;;9.00;86.40;;;;;;5043995;28;20049;-59
2022/11/23 09:54:02;;;;;;;3.97;1.13;;;9.00;86.20;;;;;;5048317;28;20060;-59
2022/11/23 09:56:33;;;;;;;4.05;0.95;;;9.00;85.90;;;;;;5047582;28;20415;-68
2022/11/23 09:59:03;;;;;;;6.15;1.40;;;9.00;85.90;;;;;;5047164;28;20503;-69
2022/11/23 10:01:30;;;;;;;3.28;0.90;;;9.10;85.10;;;;;;5042603;28;20407;-69
2022/11/23 10:03:58;;;;;;;5.20;1.20;;;9.10;85.30;;;;;;5047749;28;20060;-68
2022/11/23 10:06:27;;;;;;;4.28;1.00;;;9.10;85.30;;;;;;5045762;28;20143;-63
2022/11/23 10:09:12;;;;;;;4.47;1.27;;;9.10;85.40;;;;;;5047955;28;20044;-63
2022/11/23 10:12:11;;;;;;;4.68;1.17;;;9.10;85.50;;;;;;5042293;28;20099;-63
2022/11/23 10:14:58;;;;;;;5.72;1.23;;;9.10;85.40;;;;;;5046282;28;20061;-62
2022/11/23 10:17:39;;;;;;;6.30;1.45;;;9.10;85.70;;;;;;5046683;28;20068;-62
2022/11/23 10:20:29;;;;;;;6.80;1.55;;;9.10;85.80;;;;;;5048372;28;20488;-63
2022/11/23 10:22:58;;;;;;;3.35;1.30;;;9.10;85.70;;;;;;5048885;28;20052;-63
2022/11/23 10:25:29;;;;;;;4.10;1.20;;;9.00;85.40;;;;;;5041542;28;20033;-60
2022/11/23 10:28:01;;;;;;;3.72;1.00;;;9.00;85.00;;;;;;5043861;28;20190;-59
2022/11/23 10:30:28;;;;;;;7.13;1.95;;;9.00;84.50;;;;;;5044358;28;20409;-61
2022/11/23 10:33:00;;;;;;;4.75;1.20;;;9.00;84.30;;;;;;5046785;28;20098;-61
2022/11/23 10:35:30;;;;;;;4.93;1.00;;;9.00;84.20;;;;;;5049093;28;20118;-60
2022/11/23 10:38:11;;;;;;;3.50;1.30;;;9.00;83.60;;;;;;5047652;28;20055;-62
2022/11/23 10:40:45;;;;;;;5.25;1.10;;;9.00;83.80;;;;;;5046127;28;20037;-72
2022/11/23 10:43:16;;;;;;;4.15;1.00;;;9.00;83.60;;;;;;5046958;28;20045;-72
2022/11/23 10:45:43;;;;;;;5.13;1.13;;;9.10;83.70;;;;;;5047870;28;20140;-65
2022/11/23 10:48:10;;;;;;;4.80;1.05;;;9.00;83.20;;;;;;5049945;28;20056;-65
2022/11/23 10:50:40;;;;;;;5.05;1.20;;;9.10;83.00;;;;;;5048250;28;20072;-71
2022/11/23 10:53:22;;;;;;;3.80;1.20;;;9.00;83.30;;;;;;5046359;28;20046;-71
2022/11/23 10:55:53;;;;;;;7.05;1.65;;;9.10;82.90;;;;;;5046247;28;20083;-72
2022/11/23 10:58:30;;;;;;;6.97;1.23;;;9.10;82.90;;;;;;5043724;28;20049;-71
2022/11/23 11:01:01;;;;;;;7.57;1.20;;;9.10;82.50;;;;;;5046292;28;20510;-71
2022/11/23 11:03:31;;;;;;;4.85;1.20;;;9.10;82.30;;;;;;5045961;28;20040;-71
2022/11/23 11:06:02;;;;;;;4.15;1.00;;;9.20;82.20;;;;;;5046191;28;20134;-65
2022/11/23 11:08:31;;;;;;;2.83;1.30;;;9.20;81.20;;;;;;5045342;28;20079;-65
2022/11/23 11:11:01;;;;;;;5.18;1.50;;;9.20;81.30;;;;;;5048796;28;20510;-64
2022/11/23 11:13:30;;;;;;;;;;;9.20;81.10;;;;;;5048724;28;20037;-63
2022/11/23 11:15:59;;;;;;;5.88;1.60;;;9.20;80.60;;;;;;5048172;28;19925;-60
2022/11/23 11:18:29;;;;;;;6.97;1.45;;;9.20;81.00;;;;;;5046856;28;20049;-60
2022/11/23 11:21:00;;;;;;;4.85;1.67;;;9.20;81.30;;;;;;5041105;28;20041;-61
2022/11/23 11:23:30;;;;;;;4.78;1.25;;;9.20;81.40;;;;;;5046066;28;20116;-62
2022/11/23 11:26:16;;;;;;;3.90;1.05;;;9.10;81.20;;;;;;5044396;28;20068;-61
2022/11/23 11:28:47;;;;;;;6.43;1.60;;;9.10;81.10;;;;;;5037224;28;20048;-61
2022/11/23 11:31:43;;;;;;;3.90;1.17;;;9.10;80.90;;;;;;5046856;28;20049;-68
2022/11/23 11:34:18;;;;;;;7.15;1.40;;;9.20;80.70;;;;;;5046710;28;20521;-69
2022/11/23 11:36:52;;;;;;;5.22;1.08;;;9.20;80.30;;;;;;5029230;28;20503;-62
2022/11/23 11:39:26;;;;;;;6.80;1.48;;;9.20;79.90;;;;;;5047486;28;20450;-60
2022/11/23 11:41:59;;;;;;;5.95;1.77;;;9.10;79.90;;;;;;5030042;28;20130;-65
2022/11/23 11:44:35;;;;;;;5.00;1.10;;;9.10;79.70;;;;;;5049931;28;20106;-66
2022/11/23 11:47:22;;;;;;;4.95;1.27;;;9.20;79.70;;;;;;5045755;28;20041;-66
2022/11/23 11:49:54;;;;;;;3.72;1.10;;;9.20;79.80;;;;;;5047326;28;20067;-64
2022/11/23 11:52:25;;;;;;;5.65;1.35;;;9.20;79.50;;;;;;5046138;28;20069;-61
2022/11/23 11:54:56;;;;;;;6.38;1.38;;;9.20;79.60;;;;;;5042198;28;20053;-61
2022/11/23 11:57:31;;;;;;;2.65;0.80;;;9.20;79.10;;;;;;5043550;28;20048;-65
2022/11/23 12:00:05;;;;;;;4.90;1.08;;;9.20;79.00;;;;;;5047209;28;20141;-64
2022/11/23 12:02:41;;;;;;;3.70;0.90;;;9.20;78.90;;;;;;5047461;28;20131;-63
2022/11/23 12:05:16;;;;;;;3.38;1.13;;;9.20;79.00;;;;;;5048590;28;20147;-62
2022/11/23 12:07:49;;;;;;;4.25;1.10;;;9.20;78.60;;;;;;5048341;28;20050;-63
2022/11/23 12:10:21;;;;;;;4.18;1.30;;;9.20;78.30;;;;;;5047937;28;20098;-61
2022/11/23 12:12:49;;;;;;;5.60;1.00;;;9.20;78.00;;;;;;5048126;28;20073;-65
2022/11/23 12:15:19;;;;;;;4.68;1.40;;;9.30;77.70;;;;;;5047130;28;20091;-62
2022/11/23 12:18:18;;;;;;;5.85;1.17;;;9.20;78.00;;;;;;5049845;28;20049;-62
2022/11/23 12:20:55;;;;;;;4.78;1.13;;;9.30;77.50;;;;;;5047129;28;20117;-66
2022/11/23 12:23:33;;;;;;;2.92;0.73;;;9.30;77.40;;;;;;5041272;28;20045;-65
2022/11/23 12:26:17;;;;;;;5.00;1.10;;;9.30;77.10;;;;;;5044853;28;20112;-61
2022/11/23 12:28:58;;;;;;;6.13;1.55;;;9.30;77.00;;;;;;5043782;28;20099;-60
2022/11/23 12:31:38;;;;;;;7.90;1.15;;;9.30;77.50;;;;;;5043668;28;20049;-61
2022/11/23 12:34:28;;;;;;;5.82;1.15;;;9.30;77.40;;;;;;5042857;28;20053;-61
2022/11/23 12:37:36;;;;;;;4.53;1.20;;;9.30;77.70;;;;;;5041418;28;20047;-63
2022/11/23 12:40:27;;;;;;;4.97;1.05;;;9.30;76.90;;;;;;5048213;28;20069;-61
2022/11/23 12:43:00;;;;;;;5.10;1.52;;;9.30;76.70;;;;;;5049111;28;20041;-61
2022/11/23 12:45:46;;;;;;;5.32;1.30;;;9.40;76.90;;;;;;5048763;28;20045;-63
2022/11/23 12:48:45;;;;;;;6.88;1.20;;;9.40;76.70;;;;;;5049328;28;20563;-62
2022/11/23 12:51:24;;;;;;;5.13;0.93;;;9.40;76.40;;;;;;5041621;28;20431;-61
2022/11/23 12:54:03;;;;;;;5.22;1.35;;;9.40;76.70;;;;;;5048115;28;20063;-63
2022/11/23 12:56:54;;;;;;;7.10;1.85;;;9.40;77.40;;;;;;5052236;28;20049;-63
2022/11/23 12:59:24;;;;;;;5.90;1.45;;;9.40;77.30;;;;;;5051766;28;20130;-63
2022/11/23 13:01:58;;;;;;;8.05;1.45;;;9.40;76.70;;;;;;5034328;28;20522;-62
2022/11/23 13:04:57;;;;;;;5.15;1.13;;;9.40;75.70;;;;;;5052580;28;20684;-62
2022/11/23 13:08:03;;;;;;;7.03;1.35;;;9.50;74.90;;;;;;5049578;28;20080;-60
2022/11/23 13:10:46;;;;;;;9.55;2.22;;;9.50;74.70;;;;;;5050726;28;21091;-63
2022/11/23 13:13:29;;;;;;;10.73;2.65;;;9.50;73.70;;;;;;5052453;28;20665;-63
2022/11/23 13:16:19;;;;;;;7.30;1.70;;;9.50;73.20;;;;;;5049886;28;20049;-64
2022/11/23 13:19:11;;;;;;;5.78;1.38;;;9.50;73.50;;;;;;5050948;28;20041;-63